createdAt,value
2022-12-11T02:29:42.569Z,28.20
2022-12-11T02:32:17.960Z,26.83
2022-12-11T02:34:57.374Z,28.93
2022-12-11T02:37:32.481Z,27.03
2022-12-11T05:02:49.832Z,16.67
2022-12-11T05:05:18.147Z,15.77
2022-12-11T05:07:46.249Z,14.60
2022-12-11T05:10:14.290Z,16.23
2022-12-11T05:12:42.410Z,14.90
2022-12-11T05:15:11.673Z,16.90
2022-12-11T05:17:39.946Z,13.20
2022-12-11T05:20:10.605Z,15.50
2022-12-11T05:22:39.409Z,20.17
2022-12-11T05:25:08.933Z,16.33
2022-12-11T05:27:37.298Z,14.00
2022-12-11T05:30:06.415Z,17.50
2022-12-11T05:32:34.452Z,16.90
2022-12-11T05:35:03.757Z,20.37
2022-12-11T05:37:34.412Z,14.57
2022-12-11T05:40:02.960Z,13.47
2022-12-11T05:42:30.981Z,14.00
2022-12-11T05:44:59.055Z,14.33
2022-12-11T05:47:27.158Z,15.67
2022-12-11T05:49:55.255Z,15.90
2022-12-11T05:52:23.382Z,15.00
2022-12-11T05:54:52.871Z,18.50
2022-12-11T05:57:20.928Z,16.00
2022-12-11T05:59:49.031Z,14.20
2022-12-11T06:02:17.215Z,14.73
2022-12-11T06:04:45.390Z,14.87
2022-12-11T06:07:13.522Z,17.07
2022-12-11T06:09:41.679Z,14.90
2022-12-11T06:12:11.174Z,15.50
2022-12-11T06:14:39.235Z,13.40
2022-12-11T06:17:07.421Z,12.20
2022-12-11T06:19:37.177Z,14.93
2022-12-11T06:22:05.851Z,13.40
2022-12-11T06:24:33.945Z,13.90
2022-12-11T06:27:02.015Z,13.03
2022-12-11T06:29:31.500Z,15.40
2022-12-11T06:31:59.525Z,12.33
2022-12-11T06:34:27.675Z,13.20
2022-12-11T06:36:55.785Z,12.37
2022-12-11T06:39:23.941Z,12.23
2022-12-11T06:41:52.210Z,12.20
2022-12-11T06:44:20.276Z,14.00
2022-12-11T06:46:49.615Z,16.70
2022-12-11T06:49:17.775Z,18.07
2022-12-11T06:51:45.890Z,11.40
2022-12-11T06:54:13.972Z,15.00
2022-12-11T06:56:42.078Z,11.57
2022-12-11T06:59:12.980Z,14.47
2022-12-11T07:01:41.838Z,13.27
2022-12-11T07:04:11.285Z,12.33
2022-12-11T07:06:39.478Z,15.47
2022-12-11T07:09:08.204Z,12.07
2022-12-11T07:11:36.277Z,14.60
2022-12-11T07:14:04.401Z,12.33
2022-12-11T07:16:32.600Z,15.27
2022-12-11T07:19:00.737Z,16.40
2022-12-11T07:21:30.310Z,13.63
2022-12-11T07:23:58.688Z,14.60
2022-12-11T07:26:26.905Z,18.43
2022-12-11T07:28:58.514Z,17.67
2022-12-11T07:31:27.784Z,19.43
2022-12-11T07:33:56.695Z,15.03
2022-12-11T07:36:25.456Z,16.73
2022-12-11T07:38:55.452Z,16.00
2022-12-11T07:41:24.521Z,19.03
2022-12-11T07:43:55.609Z,18.17
2022-12-11T07:46:25.618Z,15.80
2022-12-11T07:48:54.323Z,17.20
2022-12-11T07:51:26.636Z,17.03
2022-12-11T07:53:58.204Z,17.93
2022-12-11T07:56:27.177Z,21.77
2022-12-11T07:58:55.301Z,22.50
2022-12-11T08:01:26.066Z,34.10
2022-12-11T08:03:55.563Z,22.73
2022-12-11T08:06:27.955Z,26.40
2022-12-11T08:08:58.524Z,28.57
2022-12-11T08:11:27.343Z,27.23
2022-12-11T08:13:55.830Z,23.03
2022-12-11T08:16:24.436Z,21.17
2022-12-11T08:18:52.937Z,24.10
2022-12-11T08:21:23.035Z,21.67
2022-12-11T08:23:52.551Z,24.30
2022-12-11T08:26:27.835Z,23.70
2022-12-11T08:28:56.196Z,18.00
2022-12-11T08:31:24.816Z,22.23
2022-12-11T08:33:53.961Z,17.60
2022-12-11T08:36:23.875Z,21.03
2022-12-11T08:38:52.497Z,22.10
2022-12-11T08:41:24.031Z,20.53
2022-12-11T08:43:54.892Z,18.97
2022-12-11T08:46:24.999Z,21.77
2022-12-11T08:48:53.531Z,20.80
2022-12-11T08:51:25.107Z,19.00
2022-12-11T08:53:55.943Z,23.30
2022-12-11T08:56:25.889Z,21.63
2022-12-11T08:58:54.735Z,22.30
2022-12-11T09:01:25.759Z,22.37
2022-12-11T09:03:55.396Z,17.50
2022-12-11T09:06:25.677Z,18.37
2022-12-11T09:08:54.741Z,23.60
2022-12-11T09:11:26.142Z,22.47
2022-12-11T09:13:54.474Z,23.47
2022-12-11T09:16:24.116Z,21.33
2022-12-11T09:18:54.553Z,20.00
2022-12-11T09:21:24.644Z,19.83
2022-12-11T09:23:55.368Z,20.40
2022-12-11T09:26:25.813Z,16.47
2022-12-11T09:28:54.862Z,20.50
2022-12-11T09:31:26.411Z,20.60
2022-12-11T09:33:57.601Z,22.40
2022-12-11T09:36:26.515Z,20.13
2022-12-11T09:38:54.754Z,18.00
2022-12-11T09:41:38.688Z,19.23
2022-12-11T09:44:17.464Z,20.53
2022-12-11T09:46:46.218Z,21.70
2022-12-11T09:49:23.943Z,21.33
2022-12-11T09:51:59.235Z,23.53
2022-12-11T09:54:28.022Z,20.73
2022-12-11T09:57:10.162Z,19.37
2022-12-11T09:59:49.341Z,20.73
2022-12-11T10:02:28.417Z,16.70
2022-12-11T10:05:07.289Z,18.87
2022-12-11T10:07:44.449Z,20.50
2022-12-11T10:10:19.792Z,18.90
2022-12-11T10:12:56.108Z,16.17
2022-12-11T10:15:40.406Z,18.10
2022-12-11T10:18:16.135Z,16.80
2022-12-11T10:20:45.314Z,15.33
2022-12-11T10:23:19.460Z,19.03
2022-12-11T10:25:51.545Z,18.30
2022-12-11T10:28:22.303Z,19.33
2022-12-11T10:30:56.474Z,15.47
2022-12-11T10:33:31.783Z,12.57
2022-12-11T10:36:00.483Z,12.77
2022-12-11T10:38:31.289Z,16.17
2022-12-11T10:41:01.742Z,13.20
2022-12-11T10:43:39.710Z,14.50
2022-12-11T10:46:15.178Z,13.80
2022-12-11T10:48:47.676Z,14.50
2022-12-11T10:51:16.557Z,14.67
2022-12-11T10:53:45.214Z,14.03
2022-12-11T10:56:14.425Z,14.43
2022-12-11T10:58:50.962Z,11.83
2022-12-11T11:01:23.336Z,16.23
2022-12-11T11:03:58.742Z,16.40
2022-12-11T11:06:27.718Z,14.63
2022-12-11T11:08:57.709Z,15.77
2022-12-11T11:11:29.180Z,14.00
2022-12-11T11:14:15.954Z,16.60
2022-12-11T11:16:46.419Z,15.97
2022-12-11T11:19:24.583Z,16.80
2022-12-11T11:21:54.911Z,15.47
2022-12-11T11:24:28.565Z,12.73
2022-12-11T11:27:12.676Z,15.27
2022-12-11T11:29:43.532Z,16.67
2022-12-11T11:32:19.580Z,17.10
2022-12-11T11:34:47.650Z,17.80
2022-12-11T11:37:31.283Z,16.00
2022-12-11T11:40:04.338Z,18.50
2022-12-11T11:42:43.265Z,15.47
2022-12-11T11:45:17.372Z,16.33
2022-12-11T11:47:53.633Z,15.10
2022-12-11T11:50:27.036Z,18.03
2022-12-11T11:53:03.384Z,14.37
2022-12-11T11:55:42.134Z,13.20
2022-12-11T11:58:15.866Z,15.07
2022-12-11T12:00:45.328Z,16.50
2022-12-11T12:03:17.506Z,15.53
2022-12-11T12:05:54.654Z,15.90
2022-12-11T12:08:42.739Z,14.60
2022-12-11T12:11:18.170Z,11.80
2022-12-11T12:13:54.942Z,13.17
2022-12-11T12:19:44.433Z,12.53
2022-12-11T12:22:24.684Z,10.40
2022-12-11T12:25:02.069Z,12.77
2022-12-11T12:27:53.681Z,10.53
2022-12-11T12:30:23.691Z,11.70
2022-12-11T12:33:11.873Z,14.80
2022-12-11T12:35:47.389Z,13.33
2022-12-11T12:38:21.449Z,14.30
2022-12-11T12:41:00.538Z,13.07
2022-12-11T12:43:48.466Z,13.53
2022-12-11T12:46:28.463Z,13.97
2022-12-11T12:48:59.864Z,13.90
2022-12-11T12:51:28.962Z,14.77
2022-12-11T12:54:00.043Z,17.40
2022-12-11T12:56:30.185Z,16.20
2022-12-11T12:58:58.908Z,15.50
2022-12-11T13:01:29.870Z,14.23
2022-12-11T13:04:02.195Z,14.83
2022-12-11T13:06:34.079Z,12.67
2022-12-11T13:09:14.928Z,12.17
2022-12-11T13:11:43.357Z,11.47
2022-12-11T13:14:27.980Z,13.13
2022-12-11T13:17:09.520Z,11.47
2022-12-11T13:19:42.757Z,10.27
2022-12-11T13:22:23.653Z,12.60
2022-12-11T13:25:01.508Z,12.07
2022-12-11T13:27:39.234Z,10.13
2022-12-11T13:30:21.746Z,11.67
2022-12-11T13:33:01.872Z,9.67
2022-12-11T13:35:32.804Z,11.97
2022-12-11T13:38:06.930Z,10.70
2022-12-11T13:40:40.269Z,9.97
2022-12-11T13:43:18.080Z,9.73
2022-12-11T13:45:50.324Z,13.80
2022-12-11T13:48:23.517Z,11.03
2022-12-11T13:50:54.390Z,13.90
2022-12-11T13:53:22.827Z,11.40
2022-12-11T13:55:58.454Z,11.77
2022-12-11T13:58:26.994Z,11.37
2022-12-11T14:01:15.145Z,12.77
2022-12-11T14:03:49.720Z,12.00
2022-12-11T14:06:20.000Z,14.23
2022-12-11T14:08:51.438Z,12.13
2022-12-11T14:11:24.870Z,11.23
2022-12-11T14:13:52.985Z,12.20
2022-12-11T14:16:23.939Z,9.80
2022-12-11T14:18:53.394Z,10.40
2022-12-11T14:21:24.490Z,11.67
2022-12-11T14:23:54.941Z,8.40
2022-12-11T14:26:25.423Z,9.47
2022-12-11T14:28:54.252Z,9.53
2022-12-11T14:31:30.301Z,10.47
2022-12-11T14:34:03.811Z,9.80
2022-12-11T14:36:36.214Z,11.13
2022-12-11T14:39:06.503Z,10.97
2022-12-11T14:41:42.987Z,10.10
2022-12-11T14:44:16.705Z,12.17
2022-12-11T14:46:47.698Z,11.00
2022-12-11T14:49:23.011Z,10.93
2022-12-11T14:51:55.216Z,10.33
2022-12-11T14:54:30.568Z,10.37
2022-12-11T14:57:00.015Z,11.47
2022-12-11T14:59:32.176Z,11.07
2022-12-11T15:02:02.757Z,10.40
2022-12-11T15:04:33.302Z,11.97
2022-12-11T15:07:03.042Z,10.63
2022-12-11T15:09:40.663Z,10.23
2022-12-11T15:12:13.532Z,11.07
2022-12-11T15:14:48.621Z,12.40
2022-12-11T15:17:17.159Z,9.70
2022-12-11T15:19:51.360Z,9.67
2022-12-11T15:22:25.242Z,9.40
2022-12-11T15:24:55.527Z,9.57
2022-12-11T15:27:32.543Z,10.43
2022-12-11T15:30:00.793Z,11.57
2022-12-11T15:32:28.876Z,10.70
2022-12-11T15:34:58.540Z,12.47
2022-12-11T15:37:29.990Z,11.27
2022-12-11T15:40:00.208Z,10.63
2022-12-11T15:42:31.149Z,11.33
2022-12-11T15:45:00.342Z,12.40
2022-12-11T15:47:31.485Z,12.37
2022-12-11T15:50:01.907Z,11.87
2022-12-11T15:52:34.396Z,11.67
2022-12-11T15:55:02.610Z,10.33
2022-12-11T15:57:30.670Z,10.90
2022-12-11T16:00:00.299Z,10.20
2022-12-11T16:02:29.000Z,12.60
2022-12-11T16:04:57.502Z,41.73
2022-12-11T16:07:27.569Z,14.07
2022-12-11T16:09:57.259Z,12.73
2022-12-11T16:12:25.596Z,11.07
2022-12-11T16:14:53.771Z,9.30
2022-12-11T16:17:21.910Z,11.27
2022-12-11T16:19:50.074Z,10.23
2022-12-11T16:22:19.461Z,10.20
2022-12-11T16:24:49.115Z,11.07
2022-12-11T16:27:22.955Z,10.53
2022-12-11T16:29:52.074Z,10.80
2022-12-11T16:32:21.132Z,10.80
2022-12-11T16:34:49.208Z,10.83
2022-12-11T16:37:17.293Z,11.60
2022-12-11T16:39:46.846Z,9.80
2022-12-11T16:42:14.929Z,9.70
2022-12-11T16:44:44.647Z,11.07
2022-12-11T16:47:12.651Z,11.90
2022-12-11T16:49:40.809Z,14.57
2022-12-11T16:52:08.961Z,13.27
2022-12-11T16:54:37.250Z,12.20
2022-12-11T16:57:05.864Z,13.93
2022-12-11T16:59:37.477Z,13.17
2022-12-11T17:02:07.620Z,13.07
2022-12-11T17:04:35.900Z,15.77
2022-12-11T17:07:04.941Z,15.53
2022-12-11T17:09:33.196Z,15.57
2022-12-11T17:12:01.249Z,14.73
2022-12-11T17:14:29.525Z,16.70
2022-12-11T17:16:57.995Z,14.97
2022-12-11T17:19:27.660Z,12.40
2022-12-11T17:21:56.174Z,17.67
2022-12-11T17:24:24.256Z,16.80
2022-12-11T17:26:53.076Z,13.90
2022-12-11T17:29:21.952Z,14.23
2022-12-11T17:31:50.213Z,15.03
2022-12-11T17:34:18.335Z,15.90
2022-12-11T17:36:47.884Z,16.50
2022-12-11T17:39:16.572Z,18.67
2022-12-11T17:41:44.800Z,15.07
2022-12-11T17:44:12.986Z,17.20
2022-12-11T17:46:41.286Z,17.27
2022-12-11T17:49:10.518Z,18.97
2022-12-11T17:51:38.697Z,19.37
2022-12-11T17:54:08.221Z,19.57
2022-12-11T17:56:36.861Z,17.90
2022-12-11T17:59:05.549Z,19.97
2022-12-11T18:01:33.943Z,18.57
2022-12-11T18:04:02.490Z,16.03
2022-12-11T18:06:31.154Z,17.47
2022-12-11T18:08:59.452Z,17.03
2022-12-11T18:11:29.026Z,17.27
2022-12-11T18:13:57.109Z,16.13
2022-12-11T18:16:28.864Z,16.33
2022-12-11T18:18:57.485Z,17.80
2022-12-11T18:21:27.212Z,19.83
2022-12-11T18:23:56.012Z,18.30
2022-12-11T18:26:24.197Z,17.53
2022-12-11T18:28:54.097Z,17.10
2022-12-11T18:31:23.118Z,15.90
2022-12-11T18:33:51.802Z,16.03
2022-12-11T18:36:21.530Z,18.00
2022-12-11T18:38:49.980Z,14.00
2022-12-11T18:41:20.158Z,14.33
2022-12-11T18:43:48.461Z,15.90
2022-12-11T18:46:21.542Z,17.27
2022-12-11T18:48:50.524Z,17.20
2022-12-11T18:51:22.581Z,15.30
2022-12-11T18:53:51.160Z,14.83
2022-12-11T18:56:21.398Z,21.90
2022-12-11T18:58:51.725Z,17.43
2022-12-11T19:01:22.859Z,17.37
2022-12-11T19:03:53.178Z,16.33
2022-12-11T19:06:26.417Z,16.67
2022-12-11T19:08:54.508Z,15.30
2022-12-11T19:11:24.630Z,17.30
2022-12-11T19:13:54.821Z,18.10
2022-12-11T19:16:26.377Z,16.63
2022-12-11T19:18:54.520Z,19.37
2022-12-11T19:21:22.673Z,19.57
2022-12-11T19:23:51.083Z,14.43
2022-12-11T19:26:21.361Z,14.50
2022-12-11T19:28:51.231Z,14.23
2022-12-11T19:31:22.839Z,9.53
2022-12-11T19:33:52.480Z,9.13
2022-12-11T19:36:22.671Z,10.50
2022-12-11T19:38:52.018Z,10.53
2022-12-11T19:41:22.715Z,8.83
2022-12-11T19:43:51.648Z,9.40
2022-12-11T19:46:20.420Z,9.07
2022-12-11T19:48:50.556Z,8.93
2022-12-11T19:51:22.406Z,11.97
2022-12-11T19:53:51.272Z,10.37
2022-12-11T19:56:20.072Z,12.03
2022-12-11T19:58:49.814Z,9.07
2022-12-11T20:01:25.003Z,7.20
2022-12-11T20:03:53.941Z,9.40
2022-12-11T20:06:23.911Z,10.23
2022-12-11T20:08:52.067Z,12.47
2022-12-11T20:11:20.244Z,12.17
2022-12-11T20:13:48.875Z,10.00
2022-12-11T20:16:20.029Z,10.93
2022-12-11T20:18:58.320Z,17.27
2022-12-11T20:21:28.586Z,12.03
2022-12-11T20:23:56.822Z,13.17
2022-12-11T20:26:26.347Z,12.73
2022-12-11T20:28:54.502Z,11.20
2022-12-11T20:31:25.505Z,15.50
2022-12-11T20:33:56.880Z,12.27
2022-12-11T20:36:25.881Z,15.37
2022-12-11T20:38:55.407Z,12.43
2022-12-11T20:41:25.346Z,14.07
2022-12-11T20:43:54.393Z,14.53
2022-12-11T20:46:24.859Z,18.27
2022-12-11T20:48:53.533Z,17.83
2022-12-11T20:51:26.364Z,15.27
2022-12-11T20:53:59.501Z,14.10
2022-12-11T20:56:30.291Z,16.13
2022-12-11T20:58:59.716Z,14.30
2022-12-11T21:01:30.441Z,15.30
2022-12-11T21:03:59.101Z,12.33
2022-12-11T21:06:31.216Z,15.80
2022-12-11T21:09:02.818Z,15.30
2022-12-11T21:11:31.018Z,14.37
2022-12-11T21:13:59.194Z,13.80
2022-12-11T21:16:27.646Z,13.27
2022-12-11T21:18:56.160Z,13.10
2022-12-11T21:21:24.652Z,15.17
2022-12-11T21:23:53.318Z,14.53
2022-12-11T21:26:22.847Z,14.70
2022-12-11T21:28:51.103Z,16.57
2022-12-11T21:31:22.084Z,13.87
2022-12-11T21:33:50.279Z,16.80
2022-12-11T21:36:18.942Z,16.90
2022-12-11T21:38:47.682Z,17.20
2022-12-11T21:41:17.781Z,15.20
2022-12-11T21:46:37.463Z,16.97
2022-12-11T21:49:05.638Z,21.23
2022-12-11T21:51:38.558Z,16.10
2022-12-11T21:54:13.119Z,19.93
2022-12-11T21:56:41.706Z,17.40
2022-12-11T21:59:11.417Z,18.80
2022-12-11T22:01:42.031Z,19.30
2022-12-11T22:04:11.402Z,15.37
2022-12-11T22:06:40.285Z,18.53
2022-12-11T22:09:08.727Z,17.07
2022-12-11T22:11:37.077Z,21.17
2022-12-11T22:14:06.815Z,21.50
2022-12-11T22:16:36.821Z,22.63
2022-12-11T22:19:05.137Z,18.17
2022-12-11T22:21:33.198Z,17.30
2022-12-11T22:24:01.582Z,19.40
2022-12-11T22:26:29.923Z,17.97
2022-12-11T22:28:58.285Z,18.03
2022-12-11T22:31:28.177Z,16.90
2022-12-11T22:33:57.760Z,20.77
2022-12-11T22:36:27.377Z,18.60
2022-12-11T22:38:56.193Z,19.87
2022-12-11T22:41:27.934Z,21.03
2022-12-11T22:43:56.496Z,21.00
2022-12-11T22:46:27.377Z,21.80
2022-12-11T22:48:56.894Z,17.77
2022-12-11T22:51:25.075Z,19.20
2022-12-11T22:53:53.171Z,18.70
2022-12-11T22:56:21.333Z,19.03
2022-12-11T22:58:49.479Z,20.13
2022-12-11T23:01:21.451Z,17.63
2022-12-11T23:03:50.343Z,21.50
2022-12-11T23:06:22.800Z,20.03
2022-12-11T23:08:51.039Z,24.97
2022-12-11T23:11:21.794Z,16.30
2022-12-11T23:13:49.800Z,22.50
2022-12-11T23:16:18.271Z,22.47
2022-12-11T23:18:46.452Z,22.10
2022-12-11T23:21:14.623Z,28.20
2022-12-11T23:23:44.087Z,17.50
2022-12-11T23:26:14.385Z,19.77
2022-12-11T23:28:43.708Z,18.77
2022-12-11T23:31:12.232Z,21.40
2022-12-11T23:33:40.296Z,19.30
2022-12-11T23:36:09.885Z,19.37
2022-12-11T23:38:38.130Z,27.37
2022-12-11T23:41:09.434Z,17.83
2022-12-11T23:43:38.880Z,19.80
2022-12-11T23:46:11.516Z,19.17
2022-12-11T23:48:39.593Z,20.70
2022-12-11T23:51:09.493Z,19.20
2022-12-11T23:53:37.537Z,18.07
2022-12-11T23:56:10.285Z,20.30
2022-12-11T23:58:39.147Z,18.50
